DLH976 EDDF-EIDW
Flight info
| Callsign | DLH976 |
|---|---|
| Flight time | 1h 44m |
| Altitude | 38000 |
| Route | OBOKA3L OBOKA Z28 DIBIR DCT BUDIP DCT RAVLO Y70 OTBED L60 PENIL UL28 LELDO M145 BAGSO BAGSO4L |
| Aircraft | A20N/M-SDE2E3FGHIRWXY/LB1 |
Departure
| Time | 2026-05-06 05:06 |
|---|---|
| Airport | Frankfurt Main Airport (EDDF) |
Arrival
| Time | 2026-05-06 06:51 |
|---|---|
| Airport | Dublin Airport (EIDW) |
| Time | Latitude | Longitude | Altitude | Speed | Heading |
|---|---|---|---|---|---|
| 2026-05-06 04:37 | 50.04700 | 8.57088 | 360 ft | 0 kts | 116° |
| 2026-05-06 04:55 | 50.04707 | 8.57066 | 357 ft | 3 kts | 118° |
| 2026-05-06 04:55 | 50.04717 | 8.57035 | 359 ft | 4 kts | 120° |
| 2026-05-06 04:55 | 50.04733 | 8.57005 | 356 ft | 3 kts | 165° |
| 2026-05-06 04:55 | 50.04752 | 8.57004 | 359 ft | 0 kts | 203° |
| 2026-05-06 04:59 | 50.04744 | 8.56999 | 360 ft | 3 kts | 202° |
| 2026-05-06 04:59 | 50.04708 | 8.56976 | 355 ft | 8 kts | 202° |
| 2026-05-06 05:00 | 50.04647 | 8.56935 | 360 ft | 12 kts | 204° |
| 2026-05-06 05:00 | 50.04555 | 8.56893 | 356 ft | 16 kts | 192° |
| 2026-05-06 05:00 | 50.04449 | 8.56811 | 351 ft | 18 kts | 243° |
| 2026-05-06 05:00 | 50.04405 | 8.56632 | 355 ft | 19 kts | 249° |
| 2026-05-06 05:01 | 50.04356 | 8.56430 | 349 ft | 21 kts | 249° |
| 2026-05-06 05:01 | 50.04304 | 8.56208 | 352 ft | 24 kts | 250° |
| 2026-05-06 05:01 | 50.04248 | 8.55974 | 354 ft | 22 kts | 250° |
| 2026-05-06 05:01 | 50.04193 | 8.55744 | 360 ft | 23 kts | 250° |
| 2026-05-06 05:02 | 50.04139 | 8.55518 | 360 ft | 23 kts | 250° |
| 2026-05-06 05:02 | 50.04083 | 8.55285 | 361 ft | 23 kts | 249° |
| 2026-05-06 05:02 | 50.04026 | 8.55050 | 361 ft | 24 kts | 250° |
| 2026-05-06 05:02 | 50.03965 | 8.54800 | 364 ft | 26 kts | 250° |
| 2026-05-06 05:03 | 50.03901 | 8.54531 | 360 ft | 27 kts | 251° |
| 2026-05-06 05:03 | 50.03818 | 8.54277 | 362 ft | 23 kts | 235° |
| 2026-05-06 05:03 | 50.03757 | 8.54045 | 364 ft | 24 kts | 249° |
| 2026-05-06 05:03 | 50.03696 | 8.53795 | 363 ft | 26 kts | 249° |
| 2026-05-06 05:04 | 50.03631 | 8.53522 | 365 ft | 27 kts | 249° |
| 2026-05-06 05:04 | 50.03564 | 8.53247 | 363 ft | 27 kts | 251° |
| 2026-05-06 05:04 | 50.03503 | 8.52997 | 368 ft | 24 kts | 248° |
| 2026-05-06 05:04 | 50.03451 | 8.52795 | 377 ft | 16 kts | 248° |
| 2026-05-06 05:05 | 50.03406 | 8.52640 | 379 ft | 16 kts | 236° |
| 2026-05-06 05:05 | 50.03352 | 8.52597 | 376 ft | 2 kts | 181° |
| 2026-05-06 05:05 | 50.03313 | 8.52595 | 375 ft | 11 kts | 181° |
| 2026-05-06 05:05 | 50.03029 | 8.52597 | 369 ft | 77 kts | 180° |
| 2026-05-06 05:06 | 50.02291 | 8.52602 | 368 ft | 132 kts | 179° |
| 2026-05-06 05:06 | 50.01248 | 8.52608 | 594 ft | 153 kts | 180° |
| 2026-05-06 05:06 | 50.00199 | 8.52651 | 1240 ft | 152 kts | 181° |
| 2026-05-06 05:06 | 49.99135 | 8.52719 | 1911 ft | 155 kts | 183° |
| 2026-05-06 05:07 | 49.98005 | 8.52818 | 2402 ft | 170 kts | 183° |
| 2026-05-06 05:07 | 49.96800 | 8.52933 | 2945 ft | 185 kts | 182° |
| 2026-05-06 05:07 | 49.95427 | 8.53046 | 3448 ft | 210 kts | 182° |
| 2026-05-06 05:07 | 49.93902 | 8.53170 | 3987 ft | 226 kts | 181° |
| 2026-05-06 05:08 | 49.92325 | 8.53338 | 4366 ft | 230 kts | 180° |
| 2026-05-06 05:08 | 49.90703 | 8.53474 | 5174 ft | 233 kts | 183° |
| 2026-05-06 05:08 | 49.89612 | 8.53493 | 5983 ft | 231 kts | 185° |
| 2026-05-06 05:08 | 49.88056 | 8.53121 | 7074 ft | 224 kts | 207° |
| 2026-05-06 05:09 | 49.86833 | 8.51683 | 8007 ft | 227 kts | 231° |
| 2026-05-06 05:09 | 49.86073 | 8.49535 | 8990 ft | 230 kts | 252° |
| 2026-05-06 05:09 | 49.85550 | 8.47096 | 9695 ft | 249 kts | 243° |
| 2026-05-06 05:09 | 49.84555 | 8.44773 | 10225 ft | 269 kts | 232° |
| 2026-05-06 05:10 | 49.83358 | 8.42421 | 10799 ft | 287 kts | 232° |
| 2026-05-06 05:10 | 49.82142 | 8.39849 | 11330 ft | 306 kts | 238° |
| 2026-05-06 05:10 | 49.81397 | 8.36678 | 11892 ft | 325 kts | 260° |
| 2026-05-06 05:10 | 49.81459 | 8.33105 | 12551 ft | 341 kts | 278° |
| 2026-05-06 05:11 | 49.82333 | 8.29662 | 13539 ft | 347 kts | 299° |
| 2026-05-06 05:11 | 49.83956 | 8.26835 | 14347 ft | 359 kts | 315° |
| 2026-05-06 05:11 | 49.85895 | 8.24348 | 15142 ft | 364 kts | 318° |
| 2026-05-06 05:11 | 49.87891 | 8.21901 | 15952 ft | 368 kts | 318° |
| 2026-05-06 05:12 | 49.89911 | 8.19416 | 16526 ft | 372 kts | 318° |
| 2026-05-06 05:12 | 49.91933 | 8.16895 | 16726 ft | 374 kts | 317° |
| 2026-05-06 05:12 | 49.93954 | 8.14345 | 16793 ft | 374 kts | 317° |
| 2026-05-06 05:12 | 49.95966 | 8.11786 | 16793 ft | 373 kts | 317° |
| 2026-05-06 05:13 | 49.97947 | 8.09259 | 16798 ft | 374 kts | 317° |
| 2026-05-06 05:13 | 49.99972 | 8.06668 | 17156 ft | 379 kts | 317° |
| 2026-05-06 05:13 | 50.02016 | 8.04051 | 18026 ft | 380 kts | 317° |
| 2026-05-06 05:13 | 50.04065 | 8.01426 | 18704 ft | 384 kts | 317° |
| 2026-05-06 05:14 | 50.06140 | 7.98765 | 19405 ft | 387 kts | 317° |
| 2026-05-06 05:14 | 50.08232 | 7.96080 | 20083 ft | 390 kts | 317° |
| 2026-05-06 05:14 | 50.10323 | 7.93392 | 20753 ft | 394 kts | 317° |
| 2026-05-06 05:14 | 50.12446 | 7.90659 | 21408 ft | 397 kts | 316° |
| 2026-05-06 05:15 | 50.14577 | 7.87914 | 22076 ft | 401 kts | 316° |
| 2026-05-06 05:15 | 50.16707 | 7.85165 | 22678 ft | 406 kts | 317° |
| 2026-05-06 05:15 | 50.18862 | 7.82380 | 23249 ft | 410 kts | 317° |
| 2026-05-06 05:15 | 50.21070 | 7.79521 | 23755 ft | 416 kts | 318° |
| 2026-05-06 05:16 | 50.23311 | 7.76619 | 24267 ft | 420 kts | 319° |
| 2026-05-06 05:16 | 50.25711 | 7.73972 | 24802 ft | 424 kts | 327° |
| 2026-05-06 05:16 | 50.28342 | 7.71828 | 25309 ft | 429 kts | 335° |
| 2026-05-06 05:16 | 50.31095 | 7.69982 | 25820 ft | 432 kts | 335° |
| 2026-05-06 05:17 | 50.33864 | 7.68091 | 26316 ft | 435 kts | 335° |
| 2026-05-06 05:17 | 50.36649 | 7.66175 | 26808 ft | 438 kts | 335° |
| 2026-05-06 05:17 | 50.39452 | 7.64243 | 27284 ft | 441 kts | 336° |
| 2026-05-06 05:17 | 50.42226 | 7.62326 | 27764 ft | 443 kts | 336° |
| 2026-05-06 05:18 | 50.45063 | 7.60369 | 28192 ft | 446 kts | 336° |
| 2026-05-06 05:18 | 50.47908 | 7.58407 | 28627 ft | 449 kts | 336° |
| 2026-05-06 05:18 | 50.50780 | 7.56426 | 29047 ft | 452 kts | 337° |
| 2026-05-06 05:18 | 50.53674 | 7.54428 | 29457 ft | 454 kts | 337° |
| 2026-05-06 05:19 | 50.56506 | 7.52195 | 29849 ft | 458 kts | 330° |
| 2026-05-06 05:19 | 50.59201 | 7.49472 | 30191 ft | 461 kts | 327° |
| 2026-05-06 05:19 | 50.61897 | 7.46700 | 30533 ft | 463 kts | 327° |
| 2026-05-06 05:19 | 50.64602 | 7.43934 | 30897 ft | 465 kts | 327° |
| 2026-05-06 05:20 | 50.67315 | 7.41162 | 31387 ft | 464 kts | 327° |
| 2026-05-06 05:20 | 50.70020 | 7.38392 | 31817 ft | 464 kts | 327° |
| 2026-05-06 05:20 | 50.72627 | 7.35404 | 32240 ft | 464 kts | 320° |
| 2026-05-06 05:20 | 50.74979 | 7.31925 | 32660 ft | 463 kts | 312° |
| 2026-05-06 05:21 | 50.77052 | 7.28020 | 33080 ft | 462 kts | 305° |
| 2026-05-06 05:21 | 50.78900 | 7.23864 | 33494 ft | 461 kts | 304° |
| 2026-05-06 05:21 | 50.80730 | 7.19775 | 33893 ft | 461 kts | 304° |
| 2026-05-06 05:21 | 50.82581 | 7.15654 | 34249 ft | 460 kts | 304° |
| 2026-05-06 05:22 | 50.84435 | 7.11512 | 34608 ft | 459 kts | 304° |
| 2026-05-06 05:22 | 50.86271 | 7.07396 | 34943 ft | 458 kts | 304° |
| 2026-05-06 05:22 | 50.88108 | 7.03262 | 35228 ft | 459 kts | 303° |
| 2026-05-06 05:22 | 50.89940 | 6.99128 | 35520 ft | 459 kts | 303° |
| 2026-05-06 05:23 | 50.91771 | 6.94991 | 35840 ft | 458 kts | 303° |
| 2026-05-06 05:23 | 50.93598 | 6.90861 | 36161 ft | 457 kts | 303° |
| 2026-05-06 05:23 | 50.97234 | 6.82619 | 36756 ft | 455 kts | 303° |
| 2026-05-06 05:24 | 50.99043 | 6.78508 | 37045 ft | 455 kts | 303° |
| 2026-05-06 05:24 | 51.00853 | 6.74390 | 37326 ft | 454 kts | 303° |
| 2026-05-06 05:24 | 51.02654 | 6.70282 | 37602 ft | 453 kts | 303° |
| 2026-05-06 05:24 | 51.04456 | 6.66167 | 37756 ft | 453 kts | 302° |
| 2026-05-06 05:25 | 51.08045 | 6.57950 | 37777 ft | 452 kts | 302° |
| 2026-05-06 05:25 | 51.11608 | 6.49763 | 37775 ft | 452 kts | 302° |
| 2026-05-06 05:26 | 51.15190 | 6.41505 | 37774 ft | 452 kts | 302° |
| 2026-05-06 05:26 | 51.18765 | 6.33237 | 37776 ft | 452 kts | 302° |
| 2026-05-06 05:27 | 51.22315 | 6.25002 | 37779 ft | 452 kts | 302° |
| 2026-05-06 05:27 | 51.25878 | 6.16709 | 37797 ft | 452 kts | 302° |
| 2026-05-06 05:28 | 51.29408 | 6.08401 | 37802 ft | 451 kts | 301° |
| 2026-05-06 05:28 | 51.32812 | 6.00046 | 37797 ft | 451 kts | 301° |
| 2026-05-06 05:29 | 51.36238 | 5.91612 | 37803 ft | 451 kts | 301° |
| 2026-05-06 05:29 | 51.40145 | 5.83721 | 37812 ft | 454 kts | 312° |
| 2026-05-06 05:30 | 51.44508 | 5.76412 | 37815 ft | 454 kts | 311° |
| 2026-05-06 05:30 | 51.48846 | 5.69059 | 37831 ft | 453 kts | 311° |
| 2026-05-06 05:31 | 51.53156 | 5.61752 | 37832 ft | 453 kts | 311° |
| 2026-05-06 05:31 | 51.57491 | 5.54389 | 37832 ft | 453 kts | 311° |
| 2026-05-06 05:32 | 51.61816 | 5.47020 | 37833 ft | 453 kts | 311° |
| 2026-05-06 05:32 | 51.66141 | 5.39629 | 37835 ft | 453 kts | 311° |
| 2026-05-06 05:33 | 51.70455 | 5.32235 | 37852 ft | 452 kts | 311° |
| 2026-05-06 05:33 | 51.74764 | 5.24827 | 37856 ft | 452 kts | 311° |
| 2026-05-06 05:34 | 51.79066 | 5.17409 | 37859 ft | 452 kts | 311° |
| 2026-05-06 05:34 | 51.83360 | 5.09982 | 37858 ft | 452 kts | 311° |
| 2026-05-06 05:35 | 51.87641 | 5.02557 | 37852 ft | 451 kts | 311° |
| 2026-05-06 05:35 | 51.91917 | 4.95116 | 37846 ft | 450 kts | 311° |
| 2026-05-06 05:36 | 51.96185 | 4.87669 | 37860 ft | 450 kts | 311° |
| 2026-05-06 05:36 | 52.00419 | 4.80260 | 37854 ft | 450 kts | 310° |
| 2026-05-06 05:37 | 52.04669 | 4.72797 | 37842 ft | 450 kts | 310° |
| 2026-05-06 05:37 | 52.08909 | 4.65327 | 37860 ft | 449 kts | 311° |
| 2026-05-06 05:38 | 52.13146 | 4.57848 | 37859 ft | 449 kts | 310° |
| 2026-05-06 05:38 | 52.17384 | 4.50337 | 37850 ft | 449 kts | 310° |
| 2026-05-06 05:39 | 52.21609 | 4.42832 | 37864 ft | 449 kts | 310° |
| 2026-05-06 05:39 | 52.25799 | 4.35363 | 37868 ft | 449 kts | 310° |
| 2026-05-06 05:40 | 52.30018 | 4.27826 | 37869 ft | 449 kts | 310° |
| 2026-05-06 05:40 | 52.34233 | 4.20260 | 37868 ft | 449 kts | 310° |
| 2026-05-06 05:41 | 52.38415 | 4.12744 | 37891 ft | 449 kts | 310° |
| 2026-05-06 05:41 | 52.42618 | 4.05162 | 37884 ft | 449 kts | 309° |
| 2026-05-06 05:42 | 52.46806 | 3.97577 | 37904 ft | 449 kts | 310° |
| 2026-05-06 05:42 | 52.51001 | 3.89963 | 37905 ft | 449 kts | 309° |
| 2026-05-06 05:43 | 52.55163 | 3.82393 | 37905 ft | 449 kts | 309° |
| 2026-05-06 05:43 | 52.59340 | 3.74755 | 37910 ft | 449 kts | 310° |
| 2026-05-06 05:44 | 52.63515 | 3.67109 | 37910 ft | 449 kts | 310° |
| 2026-05-06 05:44 | 52.67686 | 3.59447 | 37912 ft | 448 kts | 309° |
| 2026-05-06 05:45 | 52.71821 | 3.51828 | 37922 ft | 448 kts | 309° |
| 2026-05-06 05:45 | 52.75973 | 3.44146 | 37924 ft | 448 kts | 309° |
| 2026-05-06 05:46 | 52.80128 | 3.36441 | 37921 ft | 448 kts | 309° |
| 2026-05-06 05:46 | 52.84268 | 3.28738 | 37921 ft | 447 kts | 309° |
| 2026-05-06 05:47 | 52.88362 | 3.20988 | 37919 ft | 446 kts | 305° |
| 2026-05-06 05:47 | 52.91511 | 3.12236 | 37914 ft | 441 kts | 291° |
| 2026-05-06 05:48 | 52.93295 | 3.02660 | 37924 ft | 437 kts | 280° |
| 2026-05-06 05:48 | 52.94591 | 2.92808 | 37924 ft | 437 kts | 281° |
| 2026-05-06 05:49 | 52.95899 | 2.82948 | 37923 ft | 437 kts | 281° |
| 2026-05-06 05:49 | 52.97185 | 2.73079 | 37925 ft | 437 kts | 280° |
| 2026-05-06 05:50 | 52.98452 | 2.63258 | 37939 ft | 437 kts | 280° |
| 2026-05-06 05:50 | 52.99716 | 2.53388 | 37952 ft | 437 kts | 280° |
| 2026-05-06 05:51 | 53.00967 | 2.43544 | 37936 ft | 434 kts | 280° |
| 2026-05-06 05:51 | 53.02199 | 2.33780 | 37938 ft | 435 kts | 280° |
| 2026-05-06 05:52 | 53.03432 | 2.23950 | 37935 ft | 435 kts | 280° |
| 2026-05-06 05:52 | 53.04658 | 2.14096 | 37938 ft | 435 kts | 280° |
| 2026-05-06 05:53 | 53.05875 | 2.04249 | 37938 ft | 434 kts | 279° |
| 2026-05-06 05:53 | 53.06878 | 1.96065 | 37943 ft | 434 kts | 280° |
| 2026-05-06 05:54 | 53.08079 | 1.86217 | 37941 ft | 434 kts | 279° |
| 2026-05-06 05:54 | 53.09271 | 1.76371 | 37946 ft | 434 kts | 279° |
| 2026-05-06 05:55 | 53.10455 | 1.66513 | 37949 ft | 434 kts | 279° |
| 2026-05-06 05:55 | 53.11630 | 1.56654 | 37951 ft | 434 kts | 279° |
| 2026-05-06 05:56 | 53.12795 | 1.46824 | 37957 ft | 431 kts | 279° |
| 2026-05-06 05:56 | 53.13952 | 1.36976 | 37964 ft | 434 kts | 279° |
| 2026-05-06 05:57 | 53.15097 | 1.27162 | 37963 ft | 432 kts | 279° |
| 2026-05-06 05:57 | 53.16234 | 1.17334 | 37971 ft | 431 kts | 279° |
| 2026-05-06 05:58 | 53.17368 | 1.07457 | 37973 ft | 433 kts | 279° |
| 2026-05-06 05:58 | 53.18494 | 0.97559 | 37975 ft | 432 kts | 279° |
| 2026-05-06 05:59 | 53.19605 | 0.87740 | 37977 ft | 429 kts | 279° |
| 2026-05-06 05:59 | 53.20709 | 0.77885 | 37980 ft | 432 kts | 279° |
| 2026-05-06 06:00 | 53.21806 | 0.68020 | 37985 ft | 432 kts | 279° |
| 2026-05-06 06:00 | 53.22895 | 0.58169 | 37987 ft | 430 kts | 278° |
| 2026-05-06 06:01 | 53.23965 | 0.48383 | 37987 ft | 435 kts | 279° |
| 2026-05-06 06:01 | 53.25044 | 0.38435 | 37987 ft | 434 kts | 279° |
| 2026-05-06 06:02 | 53.26111 | 0.28540 | 37990 ft | 432 kts | 279° |
| 2026-05-06 06:02 | 53.27168 | 0.18649 | 37996 ft | 433 kts | 279° |
| 2026-05-06 06:03 | 53.28219 | 0.08727 | 37996 ft | 433 kts | 279° |
| 2026-05-06 06:03 | 53.29261 | -0.01197 | 38009 ft | 433 kts | 278° |
| 2026-05-06 06:04 | 53.30288 | -0.11057 | 38005 ft | 433 kts | 278° |
| 2026-05-06 06:04 | 53.31314 | -0.20990 | 38007 ft | 433 kts | 278° |
| 2026-05-06 06:05 | 53.32333 | -0.30943 | 38020 ft | 433 kts | 278° |
| 2026-05-06 06:05 | 53.33341 | -0.40878 | 38019 ft | 433 kts | 278° |
| 2026-05-06 06:06 | 53.34340 | -0.50806 | 38023 ft | 432 kts | 278° |
| 2026-05-06 06:06 | 53.35325 | -0.60684 | 38022 ft | 432 kts | 278° |
| 2026-05-06 06:07 | 53.36308 | -0.70624 | 38023 ft | 432 kts | 278° |
| 2026-05-06 06:07 | 53.37282 | -0.80551 | 38023 ft | 432 kts | 278° |
| 2026-05-06 06:08 | 53.38248 | -0.90478 | 38033 ft | 432 kts | 278° |
| 2026-05-06 06:08 | 53.39205 | -1.00413 | 38035 ft | 432 kts | 278° |
| 2026-05-06 06:09 | 53.40152 | -1.10343 | 38047 ft | 431 kts | 278° |
| 2026-05-06 06:09 | 53.41092 | -1.20277 | 38043 ft | 431 kts | 278° |
| 2026-05-06 06:10 | 53.42014 | -1.30134 | 38048 ft | 430 kts | 278° |
| 2026-05-06 06:10 | 53.42934 | -1.40051 | 38045 ft | 430 kts | 277° |
| 2026-05-06 06:11 | 53.43846 | -1.49973 | 38043 ft | 430 kts | 277° |
| 2026-05-06 06:11 | 53.44748 | -1.59886 | 38042 ft | 430 kts | 277° |
| 2026-05-06 06:12 | 53.45642 | -1.69797 | 38043 ft | 429 kts | 277° |
| 2026-05-06 06:12 | 53.46526 | -1.79696 | 38042 ft | 429 kts | 277° |
| 2026-05-06 06:13 | 53.47403 | -1.89612 | 38042 ft | 429 kts | 277° |
| 2026-05-06 06:13 | 53.48273 | -1.99546 | 38044 ft | 430 kts | 277° |
| 2026-05-06 06:14 | 53.49135 | -2.09492 | 38053 ft | 430 kts | 277° |
| 2026-05-06 06:14 | 53.49983 | -2.19369 | 38053 ft | 430 kts | 277° |
| 2026-05-06 06:15 | 53.50828 | -2.29328 | 38051 ft | 430 kts | 277° |
| 2026-05-06 06:15 | 53.51665 | -2.39273 | 38054 ft | 430 kts | 277° |
| 2026-05-06 06:16 | 53.52490 | -2.49178 | 38051 ft | 430 kts | 277° |
| 2026-05-06 06:16 | 53.53310 | -2.59129 | 38055 ft | 430 kts | 277° |
| 2026-05-06 06:17 | 53.54123 | -2.69099 | 38061 ft | 430 kts | 277° |
| 2026-05-06 06:17 | 53.54925 | -2.79049 | 38059 ft | 429 kts | 277° |
| 2026-05-06 06:18 | 53.55720 | -2.89006 | 38057 ft | 429 kts | 277° |
| 2026-05-06 06:18 | 53.56504 | -2.98937 | 38056 ft | 429 kts | 277° |
| 2026-05-06 06:19 | 53.57281 | -3.08897 | 37905 ft | 429 kts | 276° |
| 2026-05-06 06:19 | 53.57666 | -3.13867 | 37629 ft | 427 kts | 277° |
| 2026-05-06 06:19 | 53.58047 | -3.18812 | 37359 ft | 425 kts | 276° |
| 2026-05-06 06:20 | 53.58426 | -3.23754 | 37094 ft | 425 kts | 276° |
| 2026-05-06 06:20 | 53.58796 | -3.28618 | 36835 ft | 425 kts | 276° |
| 2026-05-06 06:20 | 53.59169 | -3.33548 | 36570 ft | 424 kts | 276° |
| 2026-05-06 06:20 | 53.59541 | -3.38485 | 36032 ft | 426 kts | 276° |
| 2026-05-06 06:21 | 53.59913 | -3.43446 | 35292 ft | 428 kts | 276° |
| 2026-05-06 06:21 | 53.60283 | -3.48420 | 34617 ft | 427 kts | 276° |
| 2026-05-06 06:21 | 53.60651 | -3.53386 | 33829 ft | 428 kts | 276° |
| 2026-05-06 06:21 | 53.61015 | -3.58335 | 33128 ft | 424 kts | 276° |
| 2026-05-06 06:22 | 53.61413 | -3.63253 | 32337 ft | 423 kts | 279° |
| 2026-05-06 06:22 | 53.62108 | -3.68064 | 31533 ft | 424 kts | 286° |
| 2026-05-06 06:22 | 53.63123 | -3.72711 | 30908 ft | 420 kts | 291° |
| 2026-05-06 06:22 | 53.64225 | -3.77228 | 30334 ft | 415 kts | 290° |
| 2026-05-06 06:23 | 53.65301 | -3.81721 | 29696 ft | 410 kts | 290° |
| 2026-05-06 06:23 | 53.66358 | -3.86160 | 29281 ft | 404 kts | 290° |
| 2026-05-06 06:23 | 53.67397 | -3.90533 | 28551 ft | 398 kts | 290° |
| 2026-05-06 06:23 | 53.68421 | -3.94845 | 27989 ft | 393 kts | 290° |
| 2026-05-06 06:24 | 53.69418 | -3.99050 | 27425 ft | 388 kts | 290° |
| 2026-05-06 06:24 | 53.70409 | -4.03247 | 26870 ft | 383 kts | 289° |
| 2026-05-06 06:24 | 53.71214 | -4.07508 | 26321 ft | 378 kts | 283° |
| 2026-05-06 06:24 | 53.71719 | -4.11837 | 25768 ft | 374 kts | 277° |
| 2026-05-06 06:25 | 53.71949 | -4.16192 | 25232 ft | 370 kts | 273° |
| 2026-05-06 06:25 | 53.72099 | -4.20512 | 24688 ft | 367 kts | 274° |
| 2026-05-06 06:25 | 53.72427 | -4.29052 | 23558 ft | 363 kts | 274° |
| 2026-05-06 06:26 | 53.72588 | -4.33282 | 23026 ft | 358 kts | 274° |
| 2026-05-06 06:26 | 53.72743 | -4.37446 | 22500 ft | 354 kts | 274° |
| 2026-05-06 06:26 | 53.72894 | -4.41568 | 21963 ft | 349 kts | 274° |
| 2026-05-06 06:26 | 53.73040 | -4.45643 | 21434 ft | 346 kts | 274° |
| 2026-05-06 06:27 | 53.73188 | -4.49785 | 20916 ft | 366 kts | 274° |
| 2026-05-06 06:27 | 53.73342 | -4.54132 | 20345 ft | 381 kts | 274° |
| 2026-05-06 06:27 | 53.73499 | -4.58629 | 19762 ft | 385 kts | 274° |
| 2026-05-06 06:27 | 53.73655 | -4.63146 | 19175 ft | 384 kts | 274° |
| 2026-05-06 06:28 | 53.73807 | -4.67616 | 18586 ft | 379 kts | 274° |
| 2026-05-06 06:28 | 53.73956 | -4.72031 | 17966 ft | 374 kts | 274° |
| 2026-05-06 06:28 | 53.74101 | -4.76380 | 17384 ft | 366 kts | 274° |
| 2026-05-06 06:28 | 53.74242 | -4.80648 | 16818 ft | 360 kts | 274° |
| 2026-05-06 06:29 | 53.74379 | -4.84841 | 16260 ft | 354 kts | 274° |
| 2026-05-06 06:29 | 53.74514 | -4.88968 | 15705 ft | 349 kts | 274° |
| 2026-05-06 06:29 | 53.74645 | -4.92991 | 15169 ft | 345 kts | 274° |
| 2026-05-06 06:29 | 53.74774 | -4.97005 | 14622 ft | 341 kts | 274° |
| 2026-05-06 06:30 | 53.74901 | -5.00991 | 14092 ft | 338 kts | 274° |
| 2026-05-06 06:30 | 53.75026 | -5.04941 | 13531 ft | 334 kts | 274° |
| 2026-05-06 06:30 | 53.75148 | -5.08839 | 13005 ft | 330 kts | 274° |
| 2026-05-06 06:30 | 53.75139 | -5.12689 | 12487 ft | 327 kts | 266° |
| 2026-05-06 06:31 | 53.74774 | -5.16452 | 11977 ft | 324 kts | 257° |
| 2026-05-06 06:31 | 53.74090 | -5.20074 | 11462 ft | 322 kts | 252° |
| 2026-05-06 06:31 | 53.73352 | -5.23644 | 10946 ft | 320 kts | 252° |
| 2026-05-06 06:31 | 53.72636 | -5.27178 | 10448 ft | 317 kts | 252° |
| 2026-05-06 06:32 | 53.71935 | -5.30644 | 10227 ft | 305 kts | 252° |
| 2026-05-06 06:32 | 53.71263 | -5.33965 | 10104 ft | 291 kts | 252° |
| 2026-05-06 06:32 | 53.70626 | -5.37101 | 9853 ft | 283 kts | 252° |
| 2026-05-06 06:32 | 53.69992 | -5.40223 | 9582 ft | 276 kts | 252° |
| 2026-05-06 06:33 | 53.69367 | -5.43295 | 9383 ft | 281 kts | 252° |
| 2026-05-06 06:33 | 53.68728 | -5.46431 | 9100 ft | 279 kts | 252° |
| 2026-05-06 06:33 | 53.68200 | -5.49490 | 9002 ft | 265 kts | 261° |
| 2026-05-06 06:33 | 53.68048 | -5.52503 | 8917 ft | 251 kts | 272° |
| 2026-05-06 06:34 | 53.68149 | -5.55456 | 8837 ft | 254 kts | 274° |
| 2026-05-06 06:34 | 53.68239 | -5.58430 | 8760 ft | 252 kts | 273° |
| 2026-05-06 06:34 | 53.68317 | -5.61381 | 8680 ft | 253 kts | 273° |
| 2026-05-06 06:34 | 53.68341 | -5.64343 | 8597 ft | 253 kts | 264° |
| 2026-05-06 06:35 | 53.67770 | -5.67131 | 8522 ft | 255 kts | 238° |
| 2026-05-06 06:35 | 53.66629 | -5.69427 | 8448 ft | 256 kts | 229° |
| 2026-05-06 06:35 | 53.65437 | -5.71653 | 8370 ft | 255 kts | 228° |
| 2026-05-06 06:35 | 53.63972 | -5.73312 | 8294 ft | 257 kts | 199° |
| 2026-05-06 06:36 | 53.62239 | -5.73568 | 8209 ft | 248 kts | 169° |
| 2026-05-06 06:36 | 53.60681 | -5.72340 | 8139 ft | 253 kts | 139° |
| 2026-05-06 06:36 | 53.59564 | -5.70101 | 8075 ft | 257 kts | 123° |
| 2026-05-06 06:36 | 53.58606 | -5.67596 | 8047 ft | 251 kts | 121° |
| 2026-05-06 06:37 | 53.57644 | -5.65096 | 8039 ft | 258 kts | 127° |
| 2026-05-06 06:37 | 53.56402 | -5.62968 | 8036 ft | 253 kts | 143° |
| 2026-05-06 06:37 | 53.54917 | -5.61381 | 8037 ft | 253 kts | 149° |
| 2026-05-06 06:37 | 53.53901 | -5.60348 | 8037 ft | 253 kts | 149° |
| 2026-05-06 06:38 | 53.52396 | -5.58813 | 8029 ft | 256 kts | 149° |
| 2026-05-06 06:38 | 53.50878 | -5.57262 | 8035 ft | 255 kts | 149° |
| 2026-05-06 06:38 | 53.49329 | -5.55802 | 8031 ft | 254 kts | 158° |
| 2026-05-06 06:38 | 53.47641 | -5.54955 | 8032 ft | 253 kts | 172° |
| 2026-05-06 06:39 | 53.45903 | -5.54522 | 8038 ft | 252 kts | 173° |
| 2026-05-06 06:39 | 53.44157 | -5.54060 | 8034 ft | 254 kts | 172° |
| 2026-05-06 06:39 | 53.42416 | -5.53583 | 8035 ft | 252 kts | 172° |
| 2026-05-06 06:39 | 53.40719 | -5.53122 | 8032 ft | 249 kts | 174° |
| 2026-05-06 06:40 | 53.38990 | -5.53083 | 8030 ft | 251 kts | 189° |
| 2026-05-06 06:40 | 53.37258 | -5.53689 | 8031 ft | 248 kts | 195° |
| 2026-05-06 06:40 | 53.35605 | -5.54339 | 8033 ft | 248 kts | 194° |
| 2026-05-06 06:40 | 53.33915 | -5.54976 | 8033 ft | 250 kts | 194° |
| 2026-05-06 06:41 | 53.32221 | -5.55611 | 8033 ft | 248 kts | 194° |
| 2026-05-06 06:41 | 53.30553 | -5.56375 | 8023 ft | 249 kts | 204° |
| 2026-05-06 06:41 | 53.29038 | -5.57724 | 8028 ft | 246 kts | 216° |
| 2026-05-06 06:41 | 53.27629 | -5.59353 | 8026 ft | 246 kts | 216° |
| 2026-05-06 06:42 | 53.26217 | -5.60954 | 8026 ft | 246 kts | 216° |
| 2026-05-06 06:42 | 53.24981 | -5.62866 | 8001 ft | 239 kts | 240° |
| 2026-05-06 06:42 | 53.24501 | -5.65397 | 7918 ft | 225 kts | 271° |
| 2026-05-06 06:42 | 53.24877 | -5.67830 | 7747 ft | 215 kts | 301° |
| 2026-05-06 06:43 | 53.25850 | -5.69702 | 7399 ft | 216 kts | 317° |
| 2026-05-06 06:43 | 53.26945 | -5.71438 | 7141 ft | 215 kts | 316° |
| 2026-05-06 06:43 | 53.28007 | -5.73206 | 6819 ft | 217 kts | 315° |
| 2026-05-06 06:43 | 53.29069 | -5.75023 | 6496 ft | 219 kts | 315° |
| 2026-05-06 06:44 | 53.30147 | -5.76890 | 6051 ft | 226 kts | 315° |
| 2026-05-06 06:44 | 53.31241 | -5.78788 | 5740 ft | 226 kts | 315° |
| 2026-05-06 06:44 | 53.32325 | -5.80671 | 5460 ft | 224 kts | 314° |
| 2026-05-06 06:44 | 53.33392 | -5.82522 | 5181 ft | 223 kts | 314° |
| 2026-05-06 06:45 | 53.34470 | -5.84393 | 4890 ft | 222 kts | 314° |
| 2026-05-06 06:45 | 53.35534 | -5.86239 | 4484 ft | 220 kts | 314° |
| 2026-05-06 06:45 | 53.36593 | -5.88079 | 4104 ft | 217 kts | 314° |
| 2026-05-06 06:45 | 53.37616 | -5.89858 | 3866 ft | 209 kts | 314° |
| 2026-05-06 06:46 | 53.38613 | -5.91594 | 3475 ft | 206 kts | 314° |
| 2026-05-06 06:46 | 53.39600 | -5.93313 | 3178 ft | 199 kts | 314° |
| 2026-05-06 06:46 | 53.40346 | -5.95320 | 3063 ft | 209 kts | 285° |
| 2026-05-06 06:46 | 53.40513 | -5.97715 | 2947 ft | 207 kts | 275° |
| 2026-05-06 06:47 | 53.40624 | -6.00077 | 2806 ft | 198 kts | 276° |
| 2026-05-06 06:47 | 53.40741 | -6.02321 | 2677 ft | 189 kts | 277° |
| 2026-05-06 06:47 | 53.40859 | -6.04479 | 2542 ft | 183 kts | 277° |
| 2026-05-06 06:47 | 53.40982 | -6.06629 | 2373 ft | 185 kts | 278° |
| 2026-05-06 06:48 | 53.41107 | -6.08738 | 2233 ft | 177 kts | 277° |
| 2026-05-06 06:48 | 53.41218 | -6.10719 | 2067 ft | 161 kts | 278° |
| 2026-05-06 06:48 | 53.41319 | -6.12519 | 1887 ft | 152 kts | 278° |
| 2026-05-06 06:48 | 53.41409 | -6.14202 | 1720 ft | 137 kts | 277° |
| 2026-05-06 06:49 | 53.41479 | -6.15739 | 1499 ft | 129 kts | 278° |
| 2026-05-06 06:49 | 53.41553 | -6.17220 | 1211 ft | 126 kts | 278° |
| 2026-05-06 06:49 | 53.41635 | -6.18667 | 996 ft | 125 kts | 279° |
| 2026-05-06 06:49 | 53.41760 | -6.20107 | 862 ft | 123 kts | 277° |
| 2026-05-06 06:50 | 53.41835 | -6.21511 | 695 ft | 123 kts | 275° |
| 2026-05-06 06:50 | 53.41900 | -6.22918 | 523 ft | 120 kts | 276° |
| 2026-05-06 06:50 | 53.41983 | -6.24314 | 364 ft | 122 kts | 275° |
| 2026-05-06 06:50 | 53.42061 | -6.25717 | 234 ft | 120 kts | 275° |
| 2026-05-06 06:51 | 53.42113 | -6.26505 | 231 ft | 0 kts | 312° |
| 2026-05-06 06:51 | 53.42138 | -6.26556 | 230 ft | 6 kts | 311° |
| 2026-05-06 06:51 | 53.42163 | -6.26589 | 229 ft | 4 kts | 329° |
| 2026-05-06 06:51 | 53.42182 | -6.26601 | 227 ft | 2 kts | 348° |
| 2026-05-06 06:52 | 53.42203 | -6.26591 | 226 ft | 2 kts | 31° |
| 2026-05-06 06:52 | 53.42220 | -6.26563 | 226 ft | 8 kts | 45° |
| 2026-05-06 06:52 | 53.42269 | -6.26459 | 225 ft | 12 kts | 72° |
| 2026-05-06 06:52 | 53.42271 | -6.26361 | 225 ft | 5 kts | 95° |
| 2026-05-06 06:53 | 53.42267 | -6.26274 | 225 ft | 10 kts | 95° |
| 2026-05-06 06:53 | 53.42260 | -6.26124 | 225 ft | 15 kts | 94° |
| 2026-05-06 06:53 | 53.42289 | -6.25938 | 225 ft | 17 kts | 57° |
| 2026-05-06 06:53 | 53.42377 | -6.25775 | 225 ft | 21 kts | 45° |
| 2026-05-06 06:54 | 53.42479 | -6.25601 | 225 ft | 19 kts | 45° |
| 2026-05-06 06:54 | 53.42580 | -6.25432 | 226 ft | 21 kts | 45° |
| 2026-05-06 06:54 | 53.42689 | -6.25247 | 225 ft | 23 kts | 45° |
| 2026-05-06 06:54 | 53.42773 | -6.25081 | 225 ft | 13 kts | 81° |
| 2026-05-06 06:55 | 53.42707 | -6.24967 | 225 ft | 16 kts | 146° |
| 2026-05-06 06:55 | 53.42679 | -6.24849 | 225 ft | 11 kts | 55° |
| 2026-05-06 06:55 | 53.42723 | -6.24726 | 225 ft | 12 kts | 68° |
| 2026-05-06 06:55 | 53.42697 | -6.24654 | 225 ft | 8 kts | 155° |
| 2026-05-06 06:56 | 53.42677 | -6.24639 | 226 ft | 2 kts | 155° |
| 2026-05-06 06:56 | 53.42663 | -6.24628 | 225 ft | 0 kts | 155° |